createdAt,value
2023-06-10T00:00:36.952Z,4.03
2023-06-10T00:01:38.835Z,4.40
2023-06-10T00:02:40.834Z,3.95
2023-06-10T00:03:44.634Z,5.88
2023-06-10T00:04:46.547Z,3.65
2023-06-10T00:05:48.217Z,3.95
2023-06-10T00:06:50.701Z,3.45
2023-06-10T00:07:54.354Z,3.90
2023-06-10T00:08:58.590Z,3.80
2023-06-10T00:10:01.072Z,3.90
2023-06-10T00:11:02.684Z,4.10
2023-06-10T00:12:09.050Z,3.67
2023-06-10T00:13:11.060Z,3.53
2023-06-10T00:14:12.723Z,3.55
2023-06-10T00:15:17.388Z,3.60
2023-06-10T00:16:22.364Z,3.85
2023-06-10T00:17:26.349Z,3.58
2023-06-10T00:18:28.093Z,3.65
2023-06-10T00:19:32.762Z,3.95
2023-06-10T00:20:37.046Z,3.58
2023-06-10T00:21:41.170Z,3.33
2023-06-10T00:22:46.616Z,3.33
2023-06-10T00:23:48.444Z,3.70
2023-06-10T00:24:50.146Z,3.20
2023-06-10T00:25:51.807Z,3.00
2023-06-10T00:26:53.432Z,3.20
2023-06-10T00:27:55.043Z,3.05
2023-06-10T00:28:56.654Z,2.97
2023-06-10T00:29:58.657Z,3.08
2023-06-10T00:31:00.474Z,3.30
2023-06-10T00:32:02.258Z,3.20
2023-06-10T00:33:04.204Z,3.17
2023-06-10T00:34:05.933Z,2.92
2023-06-10T00:35:08.668Z,3.22
2023-06-10T00:36:10.763Z,2.88
2023-06-10T00:37:12.347Z,3.00
2023-06-10T00:38:15.887Z,3.15
2023-06-10T00:39:18.588Z,3.28
2023-06-10T00:40:20.460Z,3.20
2023-06-10T00:41:22.065Z,3.20
2023-06-10T00:42:25.206Z,3.22
2023-06-10T00:43:26.863Z,2.85
2023-06-10T00:44:28.525Z,2.90
2023-06-10T00:45:30.418Z,2.72
2023-06-10T00:46:34.644Z,2.80
2023-06-10T00:47:36.663Z,2.95
2023-06-10T00:48:39.795Z,2.75
2023-06-10T00:49:41.506Z,2.78
2023-06-10T00:50:43.153Z,3.10
2023-06-10T00:51:45.226Z,2.97
2023-06-10T00:52:49.442Z,3.08
2023-06-10T00:53:53.646Z,3.47
2023-06-10T00:54:55.684Z,3.03
2023-06-10T00:55:57.856Z,2.38
2023-06-10T00:57:01.871Z,2.78
2023-06-10T00:58:05.057Z,2.90
2023-06-10T00:59:07.512Z,2.55
2023-06-10T01:00:09.982Z,2.60
2023-06-10T01:01:14.511Z,2.92
2023-06-10T01:02:16.356Z,2.80
2023-06-10T01:03:18.737Z,2.63
2023-06-10T01:04:20.958Z,2.70
2023-06-10T01:05:24.794Z,2.70
2023-06-10T01:07:07.105Z,2.88
2023-06-10T01:08:40.506Z,2.70
2023-06-10T01:10:03.952Z,2.28
2023-06-10T01:11:09.862Z,2.03
2023-06-10T01:12:20.093Z,2.45
2023-06-10T01:13:24.936Z,2.67
2023-06-10T01:14:27.857Z,2.70
2023-06-10T01:15:32.937Z,2.80
2023-06-10T01:16:37.067Z,2.35
2023-06-10T01:18:04.601Z,2.28
2023-06-10T01:19:07.552Z,2.40
2023-06-10T01:20:13.109Z,2.40
2023-06-10T01:21:21.980Z,2.10
2023-06-10T01:23:31.488Z,2.67
2023-06-10T01:24:33.688Z,2.35
2023-06-10T01:25:50.955Z,2.50
2023-06-10T01:26:54.910Z,2.45
2023-06-10T01:28:02.342Z,2.72
2023-06-10T01:29:20.041Z,2.95
2023-06-10T01:30:30.814Z,3.13
2023-06-10T01:31:43.082Z,2.72
2023-06-10T01:32:52.361Z,2.40
2023-06-10T01:33:54.923Z,2.85
2023-06-10T01:35:00.615Z,2.63
2023-06-10T01:36:04.499Z,3.15
2023-06-10T01:37:07.004Z,2.88
2023-06-10T01:38:08.690Z,2.40
2023-06-10T01:39:12.915Z,2.60
2023-06-10T01:40:15.880Z,2.53
2023-06-10T01:41:18.717Z,2.90
2023-06-10T01:42:21.691Z,2.55
2023-06-10T01:43:23.376Z,2.47
2023-06-10T01:44:25.596Z,2.10
2023-06-10T01:45:27.251Z,2.42
2023-06-10T01:46:28.930Z,2.45
2023-06-10T01:47:31.161Z,3.00
2023-06-10T01:48:35.473Z,3.30
2023-06-10T01:49:37.143Z,3.10
2023-06-10T01:50:38.783Z,2.97
2023-06-10T01:51:40.701Z,2.70
2023-06-10T01:52:42.877Z,2.65
2023-06-10T01:53:44.624Z,2.40
2023-06-10T01:54:46.264Z,2.55
2023-06-10T01:55:47.889Z,3.00
2023-06-10T01:56:49.530Z,3.30
2023-06-10T01:57:51.362Z,2.72
2023-06-10T01:58:56.057Z,3.15
2023-06-10T01:59:57.767Z,2.70
2023-06-10T02:00:59.435Z,2.88
2023-06-10T02:02:01.177Z,2.97
2023-06-10T02:03:03.235Z,3.05
2023-06-10T02:04:04.996Z,2.63
2023-06-10T02:05:07.976Z,2.97
2023-06-10T02:06:12.521Z,2.38
2023-06-10T02:07:14.192Z,2.17
2023-06-10T02:08:16.025Z,2.35
2023-06-10T02:09:19.437Z,2.28
2023-06-10T02:10:21.305Z,2.60
2023-06-10T02:11:22.957Z,2.78
2023-06-10T02:12:24.591Z,2.30
2023-06-10T02:13:26.243Z,2.47
2023-06-10T02:14:29.596Z,2.75
2023-06-10T02:15:31.191Z,1.90
2023-06-10T02:16:32.976Z,2.17
2023-06-10T02:17:36.829Z,2.10
2023-06-10T02:18:39.498Z,2.25
2023-06-10T02:19:44.064Z,2.30
2023-06-10T02:20:45.822Z,1.80
2023-06-10T02:21:47.575Z,1.92
2023-06-10T02:22:52.789Z,2.15
2023-06-10T02:23:54.497Z,2.45
2023-06-10T02:24:56.164Z,2.35
2023-06-10T02:25:57.807Z,2.20
2023-06-10T02:27:01.477Z,2.55
2023-06-10T02:28:04.511Z,2.25
2023-06-10T02:29:06.187Z,1.90
2023-06-10T02:30:11.295Z,2.20
2023-06-10T02:31:12.953Z,2.03
2023-06-10T02:32:14.876Z,2.35
2023-06-10T02:33:18.640Z,1.90
2023-06-10T02:34:20.831Z,2.10
2023-06-10T02:35:23.692Z,2.20
2023-06-10T02:36:29.199Z,2.50
2023-06-10T02:37:31.202Z,2.53
2023-06-10T02:38:33.200Z,2.50
2023-06-10T02:39:35.807Z,2.22
2023-06-10T02:40:41.362Z,2.55
2023-06-10T02:41:43.309Z,2.38
2023-06-10T02:42:45.049Z,2.33
2023-06-10T02:43:47.224Z,2.00
2023-06-10T02:44:48.962Z,2.25
2023-06-10T02:45:57.536Z,2.40
2023-06-10T02:46:59.369Z,2.00
2023-06-10T02:48:01.427Z,2.28
2023-06-10T02:49:03.644Z,2.10
2023-06-10T02:50:05.682Z,2.25
2023-06-10T02:51:12.074Z,2.22
2023-06-10T02:52:17.418Z,2.20
2023-06-10T02:53:19.136Z,2.10
2023-06-10T02:54:26.626Z,2.03
2023-06-10T02:55:30.519Z,1.90
2023-06-10T02:56:37.506Z,2.15
2023-06-10T02:57:41.669Z,2.05
2023-06-10T02:58:43.818Z,1.95
2023-06-10T02:59:48.638Z,2.10
2023-06-10T03:00:50.732Z,2.35
2023-06-10T03:01:52.676Z,2.30
2023-06-10T03:02:58.612Z,1.90
2023-06-10T03:04:06.408Z,1.98
2023-06-10T03:05:12.397Z,1.92
2023-06-10T03:06:17.814Z,2.03
2023-06-10T03:07:21.764Z,1.98
2023-06-10T03:08:27.380Z,1.88
2023-06-10T03:09:30.307Z,1.70
2023-06-10T03:10:34.444Z,1.70
2023-06-10T03:11:36.904Z,1.80
2023-06-10T03:12:39.522Z,1.90
2023-06-10T03:13:41.673Z,2.17
2023-06-10T03:14:46.254Z,2.22
2023-06-10T03:15:48.083Z,2.58
2023-06-10T03:16:53.160Z,1.88
2023-06-10T03:17:56.382Z,2.17
2023-06-10T03:18:58.962Z,1.92
2023-06-10T03:20:01.022Z,2.42
2023-06-10T03:21:03.848Z,2.10
2023-06-10T03:22:13.664Z,2.08
2023-06-10T03:23:21.695Z,2.17
2023-06-10T03:24:23.609Z,2.42
2023-06-10T03:25:27.208Z,1.90
2023-06-10T03:26:29.639Z,1.98
2023-06-10T03:27:32.418Z,1.88
2023-06-10T03:28:36.824Z,2.10
2023-06-10T03:29:39.020Z,2.33
2023-06-10T03:30:41.842Z,1.80
2023-06-10T03:31:45.169Z,2.30
2023-06-10T03:32:46.947Z,1.88
2023-06-10T03:33:52.054Z,2.20
2023-06-10T03:34:58.063Z,1.90
2023-06-10T03:36:01.704Z,2.35
2023-06-10T03:37:04.191Z,2.10
2023-06-10T03:38:07.047Z,2.05
2023-06-10T03:39:08.910Z,2.50
2023-06-10T03:40:11.430Z,1.80
2023-06-10T03:41:16.143Z,2.05
2023-06-10T03:42:19.577Z,1.85
2023-06-10T03:43:21.530Z,1.98
2023-06-10T03:44:27.152Z,2.20
2023-06-10T03:45:29.375Z,2.00
2023-06-10T03:46:32.235Z,1.77
2023-06-10T03:47:38.057Z,2.28
2023-06-10T03:48:43.644Z,3.03
2023-06-10T03:49:45.521Z,2.85
2023-06-10T03:50:48.681Z,2.53
2023-06-10T03:51:51.091Z,2.10
2023-06-10T03:52:53.048Z,2.05
2023-06-10T03:53:58.493Z,2.38
2023-06-10T03:55:00.155Z,2.10
2023-06-10T03:56:01.847Z,2.25
2023-06-10T03:57:06.741Z,1.90
2023-06-10T03:58:08.388Z,2.38
2023-06-10T03:59:10.083Z,2.08
2023-06-10T04:00:13.075Z,2.03
2023-06-10T04:01:19.168Z,2.33
2023-06-10T04:02:21.014Z,2.35
2023-06-10T04:03:24.049Z,2.22
2023-06-10T04:04:27.418Z,2.22
2023-06-10T04:05:29.881Z,1.90
2023-06-10T04:06:32.704Z,2.50
2023-06-10T04:07:35.472Z,2.47
2023-06-10T04:08:37.358Z,2.17
2023-06-10T04:09:39.876Z,1.80
2023-06-10T04:10:41.541Z,1.80
2023-06-10T04:11:43.191Z,2.33
2023-06-10T04:12:45.403Z,2.25
2023-06-10T04:13:47.167Z,1.92
2023-06-10T04:14:49.756Z,2.10
2023-06-10T04:15:51.975Z,1.92
2023-06-10T04:16:56.304Z,2.17
2023-06-10T04:17:58.374Z,2.47
2023-06-10T04:19:01.693Z,1.67
2023-06-10T04:20:07.552Z,2.60
2023-06-10T04:21:11.803Z,1.90
2023-06-10T04:22:13.746Z,2.58
2023-06-10T04:23:15.531Z,2.03
2023-06-10T04:24:19.635Z,2.33
2023-06-10T04:25:21.668Z,2.35
2023-06-10T04:26:26.530Z,2.00
2023-06-10T04:27:28.684Z,2.30
2023-06-10T04:28:30.500Z,2.33
2023-06-10T04:29:32.984Z,2.55
2023-06-10T04:30:35.226Z,2.60
2023-06-10T04:31:37.450Z,2.15
2023-06-10T04:32:40.238Z,2.47
2023-06-10T04:33:45.533Z,2.10
2023-06-10T04:34:47.243Z,2.42
2023-06-10T04:35:49.874Z,2.25
2023-06-10T04:36:53.229Z,1.65
2023-06-10T04:37:56.073Z,1.90
2023-06-10T04:38:57.821Z,2.17
2023-06-10T04:40:00.391Z,2.03
2023-06-10T04:41:03.350Z,2.45
2023-06-10T04:42:08.237Z,2.00
2023-06-10T04:43:10.505Z,2.22
2023-06-10T04:44:14.718Z,2.40
2023-06-10T04:45:16.963Z,2.30
2023-06-10T04:46:18.697Z,2.00
2023-06-10T04:47:21.288Z,2.45
2023-06-10T04:48:24.956Z,2.25
2023-06-10T04:49:27.353Z,2.20
2023-06-10T04:50:28.982Z,2.08
2023-06-10T04:51:30.627Z,2.45
2023-06-10T04:52:32.321Z,2.20
2023-06-10T04:53:35.537Z,2.13
2023-06-10T04:54:37.149Z,2.45
2023-06-10T04:55:38.759Z,2.25
2023-06-10T04:56:40.891Z,2.00
2023-06-10T04:57:42.695Z,2.30
2023-06-10T04:58:44.563Z,2.20
2023-06-10T04:59:46.242Z,2.40
2023-06-10T05:00:47.874Z,2.28
2023-06-10T05:01:49.589Z,2.13
2023-06-10T05:02:52.384Z,2.28
2023-06-10T05:03:54.090Z,2.00
2023-06-10T05:04:56.131Z,2.05
2023-06-10T05:05:57.805Z,2.38
2023-06-10T05:06:59.869Z,2.35
2023-06-10T05:08:01.552Z,1.80
2023-06-10T05:09:03.387Z,2.03
2023-06-10T05:10:05.415Z,2.85
2023-06-10T05:11:07.389Z,1.95
2023-06-10T05:12:09.974Z,1.95
2023-06-10T05:13:12.001Z,1.77
2023-06-10T05:14:13.915Z,2.10
2023-06-10T05:15:15.641Z,2.13
2023-06-10T05:16:17.366Z,2.17
2023-06-10T05:17:21.231Z,2.05
2023-06-10T05:18:22.905Z,2.20
2023-06-10T05:19:24.666Z,2.38
2023-06-10T05:20:27.014Z,2.55
2023-06-10T05:21:28.677Z,2.05
2023-06-10T05:22:30.355Z,2.63
2023-06-10T05:23:32.070Z,2.10
2023-06-10T05:24:33.774Z,2.42
2023-06-10T05:25:36.128Z,2.00
2023-06-10T05:26:38.397Z,1.90
2023-06-10T05:27:41.328Z,2.05
2023-06-10T05:28:44.042Z,2.20
2023-06-10T05:29:46.457Z,2.03
2023-06-10T05:30:48.073Z,2.88
2023-06-10T05:31:49.714Z,2.10
2023-06-10T05:32:52.326Z,2.17
2023-06-10T05:33:56.230Z,1.80
2023-06-10T05:34:57.843Z,2.30
2023-06-10T05:35:59.512Z,2.47
2023-06-10T05:37:01.107Z,2.10
2023-06-10T05:38:04.217Z,1.90
2023-06-10T05:39:06.073Z,2.08
2023-06-10T05:40:08.418Z,2.47
2023-06-10T05:41:10.168Z,2.13
2023-06-10T05:42:11.778Z,2.25
2023-06-10T05:43:13.464Z,2.20
2023-06-10T05:44:15.165Z,2.75
2023-06-10T05:45:17.132Z,2.15
2023-06-10T05:46:18.889Z,2.10
2023-06-10T05:47:20.723Z,1.95
2023-06-10T05:48:22.454Z,1.60
2023-06-10T05:49:24.040Z,2.10
2023-06-10T05:50:25.936Z,2.20
2023-06-10T05:51:28.509Z,2.60
2023-06-10T05:52:30.142Z,2.05
2023-06-10T05:53:32.978Z,2.00
2023-06-10T05:54:34.690Z,1.83
2023-06-10T05:55:37.148Z,1.88
2023-06-10T05:56:38.797Z,2.10
2023-06-10T05:57:42.715Z,1.90
2023-06-10T05:58:44.325Z,2.00
2023-06-10T05:59:46.105Z,2.03
2023-06-10T06:00:47.714Z,1.80
2023-06-10T06:01:51.114Z,2.33
2023-06-10T06:02:53.785Z,2.25
2023-06-10T06:03:55.836Z,2.10
2023-06-10T06:04:57.738Z,2.10
2023-06-10T06:05:59.478Z,2.25
2023-06-10T06:07:01.173Z,2.13
2023-06-10T06:08:03.301Z,2.33
2023-06-10T06:09:04.992Z,2.30
2023-06-10T06:10:07.149Z,2.25
2023-06-10T06:11:08.781Z,2.60
2023-06-10T06:12:10.685Z,2.78
2023-06-10T06:13:12.378Z,1.80
2023-06-10T06:14:14.003Z,2.30
2023-06-10T06:15:15.778Z,2.53
2023-06-10T06:16:17.956Z,2.05
2023-06-10T06:17:19.683Z,2.55
2023-06-10T06:18:21.414Z,2.30
2023-06-10T06:19:23.092Z,2.25
2023-06-10T06:20:24.808Z,1.80
2023-06-10T06:21:26.483Z,2.10
2023-06-10T06:22:28.075Z,2.78
2023-06-10T06:23:29.722Z,2.30
2023-06-10T06:24:31.416Z,2.13
2023-06-10T06:25:33.088Z,2.47
2023-06-10T06:26:34.747Z,1.95
2023-06-10T06:27:36.349Z,2.40
2023-06-10T06:28:38.225Z,2.20
2023-06-10T06:29:40.000Z,2.00
2023-06-10T06:30:42.095Z,2.30
2023-06-10T06:31:43.697Z,2.55
2023-06-10T06:32:45.549Z,2.13
2023-06-10T06:33:47.192Z,2.40
2023-06-10T06:34:50.631Z,2.72
2023-06-10T06:35:52.220Z,1.90
2023-06-10T06:36:53.868Z,2.65
2023-06-10T06:37:56.337Z,2.25
2023-06-10T06:39:02.529Z,2.38
2023-06-10T06:40:05.040Z,2.28
2023-06-10T06:41:07.631Z,2.33
2023-06-10T06:42:09.452Z,2.42
2023-06-10T06:43:37.147Z,2.50
2023-06-10T06:44:45.666Z,1.98
2023-06-10T06:45:47.390Z,2.25
2023-06-10T06:46:49.163Z,2.30
2023-06-10T06:47:50.994Z,2.53
2023-06-10T06:48:52.923Z,2.00
2023-06-10T06:49:54.730Z,2.30
2023-06-10T06:50:57.418Z,2.20
2023-06-10T06:51:59.038Z,2.20
2023-06-10T06:53:00.792Z,2.55
2023-06-10T06:54:02.663Z,2.10
2023-06-10T06:55:04.965Z,2.33
2023-06-10T06:56:06.589Z,2.25
2023-06-10T06:57:09.162Z,2.25
2023-06-10T06:58:10.931Z,2.08
2023-06-10T06:59:15.036Z,2.17
2023-06-10T07:00:16.962Z,2.50
2023-06-10T07:01:18.723Z,2.53
2023-06-10T07:02:20.933Z,2.25
2023-06-10T07:03:22.600Z,2.20
2023-06-10T07:04:24.461Z,2.05
2023-06-10T07:05:28.611Z,2.33
2023-06-10T07:06:30.406Z,2.03
2023-06-10T07:07:31.992Z,2.25
2023-06-10T07:08:33.760Z,2.22
2023-06-10T07:09:35.484Z,2.30
2023-06-10T07:10:37.119Z,2.67
2023-06-10T07:11:38.799Z,2.40
2023-06-10T07:12:40.483Z,2.20
2023-06-10T07:13:42.729Z,2.45
2023-06-10T07:14:44.549Z,2.38
2023-06-10T07:15:46.150Z,2.25
2023-06-10T07:16:49.583Z,2.17
2023-06-10T07:17:51.517Z,2.10
2023-06-10T07:18:56.133Z,2.17
2023-06-10T07:20:00.540Z,2.53
2023-06-10T07:21:02.139Z,2.40
2023-06-10T07:22:03.913Z,2.20
2023-06-10T07:23:05.748Z,2.45
2023-06-10T07:24:07.728Z,2.60
2023-06-10T07:25:09.962Z,3.13
2023-06-10T07:26:14.293Z,2.50
2023-06-10T07:27:16.119Z,2.50
2023-06-10T07:28:17.781Z,2.60
2023-06-10T07:29:19.520Z,2.30
2023-06-10T07:30:21.423Z,3.30
2023-06-10T07:31:24.752Z,2.72
2023-06-10T07:32:26.537Z,2.45
2023-06-10T07:33:28.234Z,2.28
2023-06-10T07:34:29.834Z,2.53
2023-06-10T07:35:31.486Z,2.78
2023-06-10T07:36:33.181Z,2.63
2023-06-10T07:37:36.852Z,2.58
2023-06-10T07:38:38.541Z,2.30
2023-06-10T07:39:40.362Z,2.60
2023-06-10T07:40:41.935Z,2.75
2023-06-10T07:41:43.713Z,2.70
2023-06-10T07:42:45.524Z,2.40
2023-06-10T07:43:47.215Z,2.17
2023-06-10T07:44:48.869Z,2.22
2023-06-10T07:45:50.572Z,3.08
2023-06-10T07:46:52.259Z,2.75
2023-06-10T07:47:53.949Z,2.25
2023-06-10T07:48:55.959Z,2.53
2023-06-10T07:49:57.631Z,2.55
2023-06-10T07:50:59.322Z,2.38
2023-06-10T07:52:01.024Z,2.67
2023-06-10T07:53:02.814Z,2.50
2023-06-10T07:54:04.719Z,2.35
2023-06-10T07:55:06.961Z,2.53
2023-06-10T07:56:10.920Z,2.35
2023-06-10T07:57:12.548Z,2.65
2023-06-10T07:58:14.237Z,3.00
2023-06-10T07:59:15.977Z,2.90
2023-06-10T08:00:18.075Z,2.70
2023-06-10T08:01:22.131Z,2.75
2023-06-10T08:02:25.732Z,2.97
2023-06-10T08:03:27.833Z,2.70
2023-06-10T08:04:31.994Z,2.83
2023-06-10T08:05:33.792Z,3.17
2023-06-10T08:06:35.470Z,2.60
2023-06-10T08:07:37.251Z,2.35
2023-06-10T08:08:44.015Z,3.05
2023-06-10T08:09:45.692Z,2.72
2023-06-10T08:10:47.494Z,2.97
2023-06-10T08:11:49.099Z,2.65
2023-06-10T08:12:50.961Z,2.88
2023-06-10T08:13:52.716Z,2.45
2023-06-10T08:14:56.013Z,2.70
2023-06-10T08:15:57.651Z,2.78
2023-06-10T08:16:59.402Z,2.45
2023-06-10T08:18:01.166Z,3.03
2023-06-10T08:19:02.971Z,2.40
2023-06-10T08:20:05.002Z,3.05
2023-06-10T08:21:06.677Z,2.80
2023-06-10T08:22:08.320Z,2.85
2023-06-10T08:23:10.018Z,2.63
2023-06-10T08:24:11.763Z,2.80
2023-06-10T08:25:13.446Z,3.15
2023-06-10T08:26:15.199Z,2.65
2023-06-10T08:27:16.838Z,3.30
2023-06-10T08:28:19.374Z,3.40
2023-06-10T08:29:21.001Z,2.67
2023-06-10T08:30:22.645Z,2.50
2023-06-10T08:31:24.595Z,2.55
2023-06-10T08:32:26.202Z,3.03
2023-06-10T08:33:27.952Z,2.95
2023-06-10T08:34:29.665Z,2.33
2023-06-10T08:35:31.344Z,3.03
2023-06-10T08:36:32.923Z,3.25
2023-06-10T08:37:34.663Z,2.88
2023-06-10T08:38:36.865Z,2.60
2023-06-10T08:39:38.964Z,2.88
2023-06-10T08:40:40.758Z,2.70
2023-06-10T08:41:44.940Z,3.13
2023-06-10T08:43:11.647Z,2.70
2023-06-10T08:44:29.521Z,2.30
2023-06-10T08:45:33.230Z,3.45
2023-06-10T08:46:37.033Z,2.92
2023-06-10T08:47:43.438Z,3.00
2023-06-10T08:48:48.633Z,2.72
2023-06-10T08:49:50.649Z,3.72
2023-06-10T08:50:53.441Z,2.63
2023-06-10T08:52:03.140Z,3.20
2023-06-10T08:53:08.735Z,3.08
2023-06-10T08:54:16.612Z,2.90
2023-06-10T08:55:33.096Z,2.67
2023-06-10T08:56:40.926Z,3.30
2023-06-10T08:57:45.551Z,3.08
2023-06-10T08:58:48.888Z,3.00
2023-06-10T08:59:50.834Z,3.20
2023-06-10T09:00:53.216Z,3.20
2023-06-10T09:01:55.991Z,2.97
2023-06-10T09:03:00.232Z,2.75
2023-06-10T09:04:04.498Z,3.22
2023-06-10T09:05:06.612Z,2.85
2023-06-10T09:06:08.410Z,3.30
2023-06-10T09:07:11.017Z,3.10
2023-06-10T09:08:12.765Z,3.08
2023-06-10T09:09:15.953Z,2.97
2023-06-10T09:10:17.889Z,3.30
2023-06-10T09:11:19.637Z,3.10
2023-06-10T09:12:21.485Z,3.67
2023-06-10T09:13:23.193Z,3.20
2023-06-10T09:14:25.295Z,3.28
2023-06-10T09:15:26.902Z,3.35
2023-06-10T09:16:29.291Z,3.10
2023-06-10T09:17:31.240Z,3.25
2023-06-10T09:18:32.879Z,3.40
2023-06-10T09:19:36.567Z,3.22
2023-06-10T09:20:39.971Z,3.05
2023-06-10T09:21:41.659Z,3.17
2023-06-10T09:22:44.636Z,3.10
2023-06-10T09:23:46.942Z,3.33
2023-06-10T09:24:49.010Z,3.50
2023-06-10T09:25:58.902Z,3.00
2023-06-10T09:27:08.753Z,3.08
2023-06-10T09:28:19.739Z,2.92
2023-06-10T09:29:21.507Z,3.05
2023-06-10T09:30:34.570Z,3.80
2023-06-10T09:31:37.677Z,3.80
2023-06-10T09:32:40.744Z,2.60
2023-06-10T09:33:42.420Z,2.83
2023-06-10T09:34:45.498Z,3.10
2023-06-10T09:35:49.289Z,2.78
2023-06-10T09:36:51.304Z,2.63
2023-06-10T09:38:03.408Z,3.15
2023-06-10T09:39:06.180Z,3.50
2023-06-10T09:40:11.952Z,2.80
2023-06-10T09:41:16.283Z,2.97
2023-06-10T09:42:19.666Z,2.20
2023-06-10T09:43:21.831Z,3.22
2023-06-10T09:44:25.553Z,3.33
2023-06-10T09:45:34.211Z,3.42
2023-06-10T09:46:36.389Z,3.15
2023-06-10T09:47:38.164Z,3.25
2023-06-10T09:48:45.044Z,2.75
2023-06-10T09:49:47.056Z,2.85
2023-06-10T09:50:49.612Z,3.13
2023-06-10T09:51:53.319Z,3.00
2023-06-10T09:52:55.042Z,3.22
2023-06-10T09:53:56.692Z,3.20
2023-06-10T09:55:02.588Z,3.05
2023-06-10T09:56:04.584Z,3.10
2023-06-10T09:57:10.376Z,3.03
2023-06-10T09:58:11.997Z,3.28
2023-06-10T09:59:13.730Z,3.05
2023-06-10T10:00:16.663Z,3.30
2023-06-10T10:01:18.702Z,3.40
2023-06-10T10:02:20.710Z,3.65
2023-06-10T10:03:25.628Z,3.00
2023-06-10T10:04:29.597Z,3.10
2023-06-10T10:05:31.648Z,2.85
2023-06-10T10:06:33.749Z,2.40
2023-06-10T10:07:35.912Z,3.30
2023-06-10T10:08:37.613Z,3.25
2023-06-10T10:09:40.750Z,4.20
2023-06-10T10:10:42.378Z,3.58
2023-06-10T10:11:45.156Z,2.90
2023-06-10T10:12:54.726Z,3.25
2023-06-10T10:13:56.559Z,2.67
2023-06-10T10:14:58.257Z,2.97
2023-06-10T10:16:02.743Z,2.75
2023-06-10T10:17:12.059Z,3.55
2023-06-10T10:18:19.222Z,3.38
2023-06-10T10:19:32.050Z,2.90
2023-06-10T10:20:35.868Z,2.97
2023-06-10T10:21:46.057Z,3.35
2023-06-10T10:22:50.810Z,2.85
2023-06-10T10:24:31.303Z,2.97
2023-06-10T10:25:39.108Z,3.05
2023-06-10T10:26:41.559Z,3.45
2023-06-10T10:27:52.146Z,3.22
2023-06-10T10:29:12.508Z,2.80
2023-06-10T10:30:17.007Z,3.47
2023-06-10T10:31:20.330Z,3.03
2023-06-10T10:32:33.527Z,3.17
2023-06-10T10:33:57.452Z,3.17
2023-06-10T10:35:20.259Z,3.05
2023-06-10T10:36:21.840Z,3.10
2023-06-10T10:37:23.904Z,2.72
2023-06-10T10:38:26.150Z,3.40
2023-06-10T10:39:29.323Z,3.13
2023-06-10T10:40:31.282Z,2.80
2023-06-10T10:41:33.958Z,3.17
2023-06-10T10:42:37.558Z,3.17
2023-06-10T10:43:39.395Z,3.53
2023-06-10T10:44:41.693Z,4.18
2023-06-10T10:45:43.307Z,3.22
2023-06-10T10:46:49.428Z,3.00
2023-06-10T10:47:56.768Z,3.10
2023-06-10T10:48:59.848Z,3.25
2023-06-10T10:50:01.510Z,3.20
2023-06-10T10:51:03.266Z,3.22
2023-06-10T10:52:07.884Z,3.10
2023-06-10T10:53:12.063Z,3.80
2023-06-10T10:54:14.908Z,3.13
2023-06-10T10:55:16.677Z,3.50
2023-06-10T10:56:21.807Z,3.10
2023-06-10T10:57:27.409Z,3.35
2023-06-10T10:58:29.032Z,3.03
2023-06-10T10:59:50.498Z,2.90
2023-06-10T11:00:52.172Z,2.75
2023-06-10T11:01:54.287Z,2.95
2023-06-10T11:03:11.212Z,3.15
2023-06-10T11:04:14.426Z,3.63
2023-06-10T11:05:17.482Z,3.15
2023-06-10T11:06:19.733Z,3.90
2023-06-10T11:07:22.817Z,2.75
2023-06-10T11:08:33.700Z,3.00
2023-06-10T11:09:35.744Z,3.00
2023-06-10T11:10:42.400Z,2.95
2023-06-10T11:11:51.002Z,3.13
2023-06-10T11:14:02.729Z,3.08
2023-06-10T11:15:05.041Z,2.80
2023-06-10T11:16:10.955Z,2.53
2023-06-10T11:17:22.556Z,3.00
2023-06-10T11:18:32.242Z,2.97
2023-06-10T11:19:38.603Z,2.63
2023-06-10T11:20:56.629Z,2.97
2023-06-10T11:22:02.939Z,2.75
2023-06-10T11:23:04.842Z,3.33
2023-06-10T11:24:15.985Z,3.42
2023-06-10T11:25:17.678Z,2.70
2023-06-10T11:26:32.289Z,2.72
2023-06-10T11:27:40.540Z,2.95
2023-06-10T11:29:06.029Z,3.95
2023-06-10T11:30:08.788Z,2.75
2023-06-10T11:31:21.698Z,3.35
2023-06-10T11:32:30.074Z,2.40
2023-06-10T11:33:33.582Z,2.70
2023-06-10T11:34:35.324Z,3.22
2023-06-10T11:35:37.306Z,3.10
2023-06-10T11:36:43.370Z,2.70
2023-06-10T11:37:45.823Z,3.33
2023-06-10T11:38:47.847Z,3.40
2023-06-10T11:39:53.741Z,2.95
2023-06-10T11:40:57.245Z,2.78
2023-06-10T11:41:59.592Z,2.72
2023-06-10T11:43:01.473Z,3.08
2023-06-10T11:44:06.201Z,2.50
2023-06-10T11:45:09.690Z,3.30
2023-06-10T11:46:15.587Z,2.88
2023-06-10T11:47:18.741Z,2.90
2023-06-10T11:48:20.839Z,2.78
2023-06-10T11:49:22.740Z,2.70
2023-06-10T11:50:31.609Z,2.85
2023-06-10T11:51:38.628Z,3.10
2023-06-10T11:52:42.421Z,2.85
2023-06-10T11:53:51.005Z,3.05
2023-06-10T11:54:56.464Z,2.88
2023-06-10T11:55:58.129Z,3.08
2023-06-10T11:57:04.327Z,3.17
2023-06-10T11:58:06.078Z,2.60
2023-06-10T11:59:08.803Z,3.00
2023-06-10T12:00:11.218Z,3.00
2023-06-10T12:01:28.235Z,2.55
2023-06-10T12:02:30.855Z,2.75
2023-06-10T12:03:40.676Z,2.88
2023-06-10T12:04:42.420Z,3.25
2023-06-10T12:06:06.150Z,2.58
2023-06-10T12:07:07.722Z,2.58
2023-06-10T12:08:12.992Z,2.78
2023-06-10T12:09:25.802Z,2.35
2023-06-10T12:10:29.340Z,2.55
2023-06-10T12:11:30.986Z,2.75
2023-06-10T12:12:35.632Z,2.90
2023-06-10T12:13:37.958Z,2.97
2023-06-10T12:15:00.054Z,2.58
2023-06-10T12:16:09.561Z,2.70
2023-06-10T12:17:11.458Z,2.20
2023-06-10T12:18:20.849Z,2.60
2023-06-10T12:19:22.449Z,2.22
2023-06-10T12:20:34.227Z,2.53
2023-06-10T12:21:37.971Z,3.05
2023-06-10T12:22:46.867Z,2.38
2023-06-10T12:24:10.299Z,2.40
2023-06-10T12:25:13.402Z,2.45
2023-06-10T12:26:15.561Z,2.88
2023-06-10T12:27:19.665Z,2.42
2023-06-10T12:28:25.755Z,2.80
2023-06-10T12:29:27.464Z,2.83
2023-06-10T12:30:29.766Z,2.42
2023-06-10T12:31:31.706Z,2.40
2023-06-10T12:32:47.530Z,2.80
2023-06-10T12:33:50.239Z,2.90
2023-06-10T12:35:02.985Z,2.53
2023-06-10T12:36:05.377Z,2.50
2023-06-10T12:37:14.461Z,2.60
2023-06-10T12:38:22.919Z,2.67
2023-06-10T12:39:24.679Z,2.63
2023-06-10T12:40:32.980Z,2.88
2023-06-10T12:41:38.191Z,2.83
2023-06-10T12:42:40.433Z,2.90
2023-06-10T12:43:42.113Z,2.40
2023-06-10T12:44:43.769Z,3.38
2023-06-10T12:45:45.956Z,2.95
2023-06-10T12:46:56.189Z,2.53
2023-06-10T12:48:11.074Z,2.70
2023-06-10T12:49:21.891Z,2.47
2023-06-10T12:50:23.615Z,2.47
2023-06-10T12:51:25.365Z,2.53
2023-06-10T12:52:27.190Z,2.58
2023-06-10T12:53:28.813Z,2.40
2023-06-10T12:54:30.826Z,2.60
2023-06-10T12:55:33.486Z,2.53
2023-06-10T12:56:35.196Z,2.53
2023-06-10T12:57:36.908Z,2.80
2023-06-10T12:58:38.518Z,2.55
2023-06-10T12:59:40.643Z,2.50
2023-06-10T13:00:43.296Z,2.70
2023-06-10T13:01:44.963Z,2.45
2023-06-10T13:02:46.635Z,2.53
2023-06-10T13:03:48.970Z,2.78
2023-06-10T13:04:55.944Z,2.70
2023-06-10T13:05:58.002Z,2.95
2023-06-10T13:07:02.137Z,2.67
2023-06-10T13:08:03.985Z,2.58
2023-06-10T13:09:07.845Z,2.28
2023-06-10T13:10:09.910Z,2.60
2023-06-10T13:11:11.562Z,2.60
2023-06-10T13:12:16.703Z,2.63
2023-06-10T13:13:18.666Z,2.40
2023-06-10T13:14:20.869Z,2.58
2023-06-10T13:15:23.277Z,3.05
2023-06-10T13:16:24.994Z,2.83
2023-06-10T13:17:26.906Z,2.78
2023-06-10T13:18:28.558Z,2.67
2023-06-10T13:19:30.927Z,2.80
2023-06-10T13:20:32.971Z,2.92
2023-06-10T13:21:35.326Z,2.60
2023-06-10T13:22:37.716Z,2.70
2023-06-10T13:23:39.633Z,2.60
2023-06-10T13:24:41.760Z,2.97
2023-06-10T13:25:45.585Z,3.00
2023-06-10T13:26:47.710Z,2.60
2023-06-10T13:27:49.900Z,2.70
2023-06-10T13:28:51.511Z,2.80
2023-06-10T13:29:53.179Z,2.85
2023-06-10T13:30:54.944Z,2.65
2023-06-10T13:31:56.639Z,2.60
2023-06-10T13:32:58.459Z,3.30
2023-06-10T13:34:00.268Z,2.40
2023-06-10T13:35:06.164Z,2.42
2023-06-10T13:36:08.033Z,3.15
2023-06-10T13:37:09.687Z,2.45
2023-06-10T13:38:11.352Z,2.42
2023-06-10T13:39:17.119Z,2.35
2023-06-10T13:40:20.680Z,3.17
2023-06-10T13:41:22.371Z,2.50
2023-06-10T13:42:24.214Z,2.55
2023-06-10T13:43:25.978Z,2.63
2023-06-10T13:44:27.607Z,2.67
2023-06-10T13:45:29.250Z,2.83
2023-06-10T13:46:31.030Z,2.75
2023-06-10T13:47:32.757Z,2.63
2023-06-10T13:48:34.718Z,3.17
2023-06-10T13:49:36.911Z,2.90
2023-06-10T13:50:39.428Z,2.60
2023-06-10T13:51:41.097Z,2.65
2023-06-10T13:52:42.771Z,2.65
2023-06-10T13:53:44.447Z,2.42
2023-06-10T13:54:47.476Z,3.35
2023-06-10T13:55:49.288Z,2.55
2023-06-10T13:56:50.944Z,2.67
2023-06-10T13:57:52.595Z,2.85
2023-06-10T13:58:54.241Z,2.80
2023-06-10T13:59:57.201Z,2.40
2023-06-10T14:00:59.754Z,2.25
2023-06-10T14:02:01.591Z,2.50
2023-06-10T14:03:04.686Z,2.65
2023-06-10T14:04:06.435Z,2.60
2023-06-10T14:05:09.815Z,2.60
2023-06-10T14:06:14.018Z,2.75
2023-06-10T14:07:16.623Z,2.55
2023-06-10T14:08:18.690Z,2.58
2023-06-10T14:09:20.380Z,2.95
2023-06-10T14:10:22.049Z,2.55